Los Lunas, NM (87031)

14:11:MDT den 01. august 2015 (GMT -0600)
Valencia Y | | Change Station
CLOSE
Current Station
Personlig værstasjon
Location: Los Lunas, NM
Høyde over havet: 4852 ft
Nearby Weather Stations
Gjeldende advarsel: Areal Flood Advisory

H.o.h 4852 ft 34.81 °N, 106.70 °W | Updated 4 seconds ago

Klart
Klart
87.8 °F
Feels Like 86 °F
N
1.0
Vind Variabel Vind from SV
Gusts 8.0 mph

I dag
High -- | Low -- °F
--% Chance of Precip.
I går
High -- | Low -- °F
Precip. -- tommer
6:16 AM 8:09 PM
Fullmåne, 97% visible
Lufttrykk 30.19 tommer
Sikt 10.0 eng. mil
Skyet Klart
Varmeindeks 86 °F
Duggpunkt 60 °F
Fuktighet 34%
Regn 0.00 tommer
Snødybde Not available.
UV 12 av 12
Pollen 2.30 av 12
Luftkvalitet Not available.
Flu Activity Not available.
METAR KE80 011955Z AUTO 22011G16KT 10SM CLR 31/10 A3019 RMK AO2 LTG DSNT N T03090104

More Conditions Fewer Conditions

Lufttrykk 30.19 tommer
Sikt 10.0 eng. mil
Skyet Klart
Varmeindeks 86 °F
Duggpunkt 60 °F
Fuktighet 34%
Regn 0.00 tommer
Snødybde Not available.
UV 12 av 12
Pollen 2.30 av 12
Luftkvalitet Not available.
Flu Activity Not available.
METAR KE80 011955Z AUTO 22011G16KT 10SM CLR 31/10 A3019 RMK AO2 LTG DSNT N T03090104

More Conditions Fewer Conditions

10-Day Weather Forecast

×

Almanac

Astronomi

Aug. 01, 2015 Oppgang Nedgang
Virkelig tid
Tussmørke
Nautisk skumring
Astronomisk skumring
Månen
Lengde av synlig lys
Dagens lengde
Tomorrow will be .
, % of the Moon is Illuminated

Dagens maks og min

State Highs State Lows

Community

WunderPhotos

Upload Photos

1,843,048 photos uploaded!

WunderBlogs® & News

Nearby

Luftkvalitet

  Luftkvalitet AQ Indeks Forurensing
Not available.

Snødybde

Stasjon Depth Høyde over havet

Earthquake Activity

By Distance Mag. Time & Date
Minimum magnitude displayed is 2.5.

Coastal Water Temperatures

Sted Temperatur

Stations

Nearby Weather Stations

Stasjonens lokasjon Temp. Nedkjølingseffekt Duggpunkt Fuktighet Vind Precip. H.o.h Oppdatert Type
                   
Areal Flood Advisory
Statement as of 13:13:MDT den 01. august 2015

The National Weather Service in Albuquerque has issued a

* Arroyo and Small Stream Flood Advisory for...
southwestern Sandoval County in north central New Mexico...
northeastern Cibola County in west central New Mexico...
eastern McKinley County in west central New Mexico...

* until 315 PM MDT

* at 112 PM MDT... National Weather Service Doppler radar indicated
heavy rain due to thunderstorms north of Marquez... or just
northeast of Mount Taylor. Between 1 and 3 inches of rain has
fallen in this area. High water levels are likely in Salado creek.

* Locations impacted include...
Marquez.

Other locations affected include Marquez wildlife area.

Precautionary/preparedness actions...

Remember... ditches are deadly. A gentle flow of water can become a
raging torrent in a matter of minutes.


Lat... Lon 3545 10721 3528 10727 3532 10745 3550 10737


34